Time;durP1;ratioP1;P1;durP2;ratioP2;P2;SDS_P1;SDS_P2;PMS_P1;PMS_P2;Temp;Humidity;BMP_temperature;BMP_pressure;BME280_temperature;BME280_humidity;BME280_pressure;Samples;Min_cycle;Max_cycle;Signal;HPM_P1;HPM_P2
2022/09/19 00:00:36;;;;;;;;;;;20.10;90.20;;;;;;5062276;28;19991;-62
2022/09/19 00:03:02;;;;;;;;;;;20.00;90.20;;;;;;5044857;28;19925;-61
2022/09/19 00:05:28;;;;;;;;;;;20.00;90.20;;;;;;5060912;28;19936;-62
2022/09/19 00:07:54;;;;;;;;;;;20.00;90.10;;;;;;5069096;28;19920;-65
2022/09/19 00:10:20;;;;;;;;;;;;;;;;;;5066296;28;19974;-66
2022/09/19 00:12:45;;;;;;;;;;;20.20;90.20;;;;;;5062445;28;19924;-65
2022/09/19 00:15:12;;;;;;;;;;;20.10;90.20;;;;;;5054011;28;20370;-67
2022/09/19 00:17:37;;;;;;;;;;;20.30;90.20;;;;;;5055178;28;19924;-67
2022/09/19 00:20:04;;;;;;;;;;;19.90;90.10;;;;;;5064506;28;20063;-68
2022/09/19 00:22:29;;;;;;;;;;;20.10;90.20;;;;;;5055417;28;19932;-66
2022/09/19 00:24:55;;;;;;;;;;;19.90;90.10;;;;;;5066386;28;19925;-65
2022/09/19 00:27:25;;;;;;;;;;;19.90;90.20;;;;;;5074006;28;20328;-67
2022/09/19 00:29:52;;;;;;;;;;;20.30;90.20;;;;;;5068225;28;19947;-66
2022/09/19 00:32:17;;;;;;;;;;;20.10;90.20;;;;;;5068955;28;19924;-68
2022/09/19 00:34:45;;;;;;;;;;;20.70;90.30;;;;;;5073936;28;19970;-61
2022/09/19 00:37:10;;;;;;;;;;;20.20;90.20;;;;;;5072678;28;19930;-61
2022/09/19 00:39:37;;;;;;;;;;;20.20;90.20;;;;;;5051872;28;20007;-61
2022/09/19 00:42:03;;;;;;;;;;;19.80;90.10;;;;;;5070365;28;19970;-61
2022/09/19 00:44:29;;;;;;;;;;;20.00;90.20;;;;;;5051989;28;19925;-61
2022/09/19 00:47:04;;;;;;;;;;;20.10;90.20;;;;;;5054201;28;19925;-62
2022/09/19 00:49:30;;;;;;;;;;;20.00;90.20;;;;;;5054820;28;19970;-66
2022/09/19 00:51:57;;;;;;;;;;;20.00;90.10;;;;;;5068281;28;19928;-62
2022/09/19 00:54:25;;;;;;;;;;;20.10;90.20;;;;;;5074855;28;19974;-61
2022/09/19 00:56:51;;;;;;;;;;;;;;;;;;5076379;28;19920;-66
2022/09/19 00:59:17;;;;;;;;;;;19.90;90.20;;;;;;5072466;28;19925;-62
2022/09/19 01:01:42;;;;;;;;;;;20.20;90.20;;;;;;5061864;28;19928;-62
2022/09/19 01:04:15;;;;;;;;;;;20.00;90.20;;;;;;5069250;28;19952;-61
2022/09/19 01:06:47;;;;;;;;;;;20.10;90.20;;;;;;5075445;28;19947;-61
2022/09/19 01:09:24;;;;;;;;;;;19.90;90.20;;;;;;5059566;28;19967;-62
2022/09/19 01:11:57;;;;;;;;;;;20.10;90.20;;;;;;5061405;28;19924;-62
2022/09/19 01:14:26;;;;;;;;;;;20.10;90.10;;;;;;5062965;28;20562;-62
2022/09/19 01:16:52;;;;;;;;;;;19.90;90.20;;;;;;5074862;28;19972;-62
2022/09/19 01:19:30;;;;;;;;;;;20.10;90.20;;;;;;5074155;28;19981;-62
2022/09/19 01:22:08;;;;;;;;;;;19.90;90.10;;;;;;5069197;28;19924;-61
2022/09/19 01:24:42;;;;;;;;;;;19.90;90.20;;;;;;5066813;28;19939;-61
2022/09/19 01:27:09;;;;;;;;;;;20.00;90.20;;;;;;5055965;28;20339;-62
2022/09/19 01:29:42;;;;;;;;;;;20.10;90.30;;;;;;5059818;28;19963;-62
2022/09/19 01:32:09;;;;;;;;;;;20.10;90.20;;;;;;5068245;28;19932;-62
2022/09/19 01:34:37;;;;;;;;;;;20.10;90.20;;;;;;5055231;28;19946;-61
2022/09/19 01:37:04;;;;;;;;;;;20.10;90.30;;;;;;5073709;28;20267;-63
2022/09/19 01:39:30;;;;;;;;;;;20.10;90.30;;;;;;5076899;28;19925;-62
2022/09/19 01:41:59;;;;;;;;;;;19.90;90.20;;;;;;5073494;28;20289;-62
2022/09/19 01:44:25;;;;;;;;;;;20.10;90.20;;;;;;5058720;28;19977;-62
2022/09/19 01:46:52;;;;;;;;;;;20.20;90.30;;;;;;5068741;28;20023;-62
2022/09/19 01:49:20;;;;;;;;;;;20.00;90.30;;;;;;5064305;28;19928;-61
2022/09/19 01:51:50;;;;;;;;;;;20.10;90.30;;;;;;5074761;28;19925;-62
2022/09/19 01:54:15;;;;;;;;;;;20.20;90.30;;;;;;5035937;28;19925;-61
2022/09/19 01:57:02;;;;;;;;;;;20.00;90.20;;;;;;5059047;28;19928;-61
2022/09/19 01:59:28;;;;;;;;;;;20.00;90.30;;;;;;5089074;28;20321;-62
2022/09/19 02:02:08;;;;;;;;;;;20.00;90.30;;;;;;5067073;28;19931;-62
2022/09/19 02:04:41;;;;;;;;;;;20.20;90.30;;;;;;5054241;28;19925;-61
2022/09/19 02:07:12;;;;;;;;;;;20.10;90.30;;;;;;5067510;28;20003;-61
2022/09/19 02:09:50;;;;;;;;;;;20.20;90.30;;;;;;5074492;28;20305;-61
2022/09/19 02:12:16;;;;;;;;;;;20.20;90.30;;;;;;5064661;28;20015;-62
2022/09/19 02:14:42;;;;;;;;;;;20.30;90.40;;;;;;5074047;28;19932;-61
2022/09/19 02:17:09;;;;;;;;;;;20.10;90.30;;;;;;5066955;28;19936;-62
2022/09/19 02:19:45;;;;;;;;;;;20.00;90.30;;;;;;5054776;28;20355;-61
2022/09/19 02:22:31;;;;;;;;;;;20.20;90.40;;;;;;5042291;28;19931;-62
2022/09/19 02:25:05;;;;;;;;;;;20.10;90.30;;;;;;5062923;28;19924;-62
2022/09/19 02:27:37;;;;;;;;;;;19.90;90.30;;;;;;5074379;28;19929;-61
2022/09/19 02:30:05;;;;;;;;;;;20.10;90.30;;;;;;5064625;28;19928;-62
2022/09/19 02:32:31;;;;;;;;;;;20.30;90.30;;;;;;5061454;28;20478;-62
2022/09/19 02:34:56;;;;;;;;;;;20.10;90.30;;;;;;5061032;28;19982;-63
2022/09/19 02:37:25;;;;;;;;;;;20.20;90.20;;;;;;5068042;28;19978;-62
2022/09/19 02:40:02;;;;;;;;;;;20.10;90.40;;;;;;5075625;28;20019;-62
2022/09/19 02:42:43;;;;;;;;;;;19.90;90.20;;;;;;5061013;28;19933;-62
2022/09/19 02:45:12;;;;;;;;;;;20.00;90.30;;;;;;5055552;28;19925;-62
2022/09/19 02:47:37;;;;;;;;;;;20.00;90.30;;;;;;5056206;28;19940;-61
2022/09/19 02:50:10;;;;;;;;;;;20.00;90.30;;;;;;5087610;28;19972;-61
2022/09/19 02:52:37;;;;;;;;;;;19.90;90.30;;;;;;5068466;28;19967;-63
2022/09/19 02:55:12;;;;;;;;;;;20.20;90.40;;;;;;5070795;28;19924;-62
2022/09/19 02:57:43;;;;;;;;;;;20.10;90.30;;;;;;5055367;28;19943;-62
2022/09/19 03:00:11;;;;;;;;;;;20.00;90.30;;;;;;5071882;28;19924;-62
2022/09/19 03:02:41;;;;;;;;;;;19.70;90.30;;;;;;5062914;28;19925;-62
2022/09/19 03:05:08;;;;;;;;;;;19.90;90.30;;;;;;5071995;28;20282;-63
2022/09/19 03:07:34;;;;;;;;;;;;;;;;;;5056545;28;20283;-67
2022/09/19 03:10:07;;;;;;;;;;;20.00;90.40;;;;;;5072071;28;20370;-62
2022/09/19 03:12:35;;;;;;;;;;;20.30;90.40;;;;;;5067686;28;19925;-61
2022/09/19 03:15:02;;;;;;;;;;;20.20;90.30;;;;;;5069096;28;19933;-62
2022/09/19 03:17:30;;;;;;;;;;;20.00;90.20;;;;;;5058367;28;20446;-62
2022/09/19 03:19:56;;;;;;;;;;;19.90;90.30;;;;;;5088440;28;19924;-62
2022/09/19 03:22:22;;;;;;;;;;;20.20;90.40;;;;;;5055340;28;19931;-62
2022/09/19 03:24:48;;;;;;;;;;;20.20;90.40;;;;;;5072000;28;20278;-62
2022/09/19 03:27:13;;;;;;;;;;;20.20;90.50;;;;;;5073112;28;19925;-62
2022/09/19 03:29:39;;;;;;;;;;;20.30;90.40;;;;;;5071223;28;20471;-62
2022/09/19 03:32:04;;;;;;;;;;;20.00;90.40;;;;;;5073236;28;19959;-64
2022/09/19 03:34:32;;;;;;;;;;;20.00;90.40;;;;;;5072802;28;19932;-62
2022/09/19 03:36:58;;;;;;;;;;;20.00;90.40;;;;;;5072405;28;20015;-61
2022/09/19 03:39:24;;;;;;;;;;;20.30;90.50;;;;;;5073409;28;20021;-62
2022/09/19 03:41:50;;;;;;;;;;;20.30;90.40;;;;;;5055583;28;20066;-61
2022/09/19 03:44:17;;;;;;;;;;;20.10;90.40;;;;;;5053757;28;19925;-61
2022/09/19 03:46:44;;;;;;;;;;;20.30;90.50;;;;;;5058830;28;20013;-62
2022/09/19 03:49:10;;;;;;;;;;;20.10;90.40;;;;;;5074108;28;20014;-62
2022/09/19 03:51:37;;;;;;;;;;;20.00;90.50;;;;;;5070628;28;19970;-62
2022/09/19 03:54:02;;;;;;;;;;;20.00;90.40;;;;;;5067987;28;19925;-61
2022/09/19 03:56:28;;;;;;;;;;;20.20;90.50;;;;;;5066142;28;20445;-61
2022/09/19 03:58:54;;;;;;;;;;;20.10;90.50;;;;;;5056570;28;19976;-62
2022/09/19 04:01:19;;;;;;;;;;;20.00;90.40;;;;;;5071306;28;19928;-64
2022/09/19 04:03:46;;;;;;;;;;;20.00;90.40;;;;;;5053803;28;20367;-63
2022/09/19 04:06:11;;;;;;;;;;;20.10;90.50;;;;;;5068413;28;19925;-61
2022/09/19 04:08:37;;;;;;;;;;;20.00;90.50;;;;;;5062183;28;19925;-61
2022/09/19 04:11:03;;;;;;;;;;;;;;;;;;5073529;28;19924;-69
2022/09/19 04:13:31;;;;;;;;;;;20.20;90.50;;;;;;5054898;28;20398;-62
2022/09/19 04:16:00;;;;;;;;;;;20.00;90.50;;;;;;5063655;28;19925;-62
2022/09/19 04:18:25;;;;;;;;;;;20.40;90.60;;;;;;5071679;28;19924;-62
2022/09/19 04:20:51;;;;;;;;;;;20.20;90.60;;;;;;5072818;28;19927;-62
2022/09/19 04:23:17;;;;;;;;;;;20.20;90.60;;;;;;5064453;28;19936;-63
2022/09/19 04:25:44;;;;;;;;;;;20.20;90.60;;;;;;5053761;28;19931;-61
2022/09/19 04:28:11;;;;;;;;;;;20.20;90.60;;;;;;5053337;28;19924;-62
2022/09/19 04:30:37;;;;;;;;;;;20.10;90.60;;;;;;5070672;28;19931;-62
2022/09/19 04:33:03;;;;;;;;;;;20.10;90.50;;;;;;5057516;28;19932;-63
2022/09/19 04:35:30;;;;;;;;;;;20.10;90.60;;;;;;5054507;28;19924;-63
2022/09/19 04:37:55;;;;;;;;;;;20.10;90.70;;;;;;5053640;28;19924;-63
2022/09/19 04:40:22;;;;;;;;;;;;;;;;;;5065144;28;19933;-64
2022/09/19 04:42:47;;;;;;;;;;;20.20;90.70;;;;;;5051804;28;20422;-62
2022/09/19 04:45:20;;;;;;;;;;;20.00;90.60;;;;;;5064663;28;20020;-62
2022/09/19 04:47:47;;;;;;;;;;;20.00;90.60;;;;;;5072679;28;20289;-62
2022/09/19 04:50:13;;;;;;;;;;;20.20;90.70;;;;;;5070951;28;19985;-62
2022/09/19 04:52:39;;;;;;;;;;;20.10;90.70;;;;;;5062239;28;20377;-62
2022/09/19 04:55:05;;;;;;;;;;;20.20;90.70;;;;;;5062594;28;19925;-61
2022/09/19 04:57:31;;;;;;;;;;;19.90;90.60;;;;;;5072530;28;19991;-62
2022/09/19 04:59:57;;;;;;;;;;;20.10;90.70;;;;;;5070550;28;19971;-62
2022/09/19 05:02:22;;;;;;;;;;;20.30;90.70;;;;;;5065139;28;19925;-62
2022/09/19 05:04:48;;;;;;;;;;;20.20;90.70;;;;;;5068619;28;20019;-62
2022/09/19 05:07:14;;;;;;;;;;;20.20;90.70;;;;;;5069135;28;19924;-62
2022/09/19 05:09:41;;;;;;;;;;;20.20;90.70;;;;;;5070581;28;19927;-62
2022/09/19 05:12:09;;;;;;;;;;;;;;;;;;5069094;28;19928;-65
2022/09/19 05:14:35;;;;;;;;;;;20.20;90.70;;;;;;5057690;28;20016;-67
2022/09/19 05:17:01;;;;;;;;;;;;;;;;;;5053551;28;20027;-63
2022/09/19 05:19:26;;;;;;;;;;;19.90;90.60;;;;;;5055350;28;20420;-62
2022/09/19 05:21:52;;;;;;;;;;;20.10;90.70;;;;;;5071543;28;19973;-62
2022/09/19 05:24:18;;;;;;;;;;;20.10;90.70;;;;;;5053768;28;20023;-62
2022/09/19 05:26:45;;;;;;;;;;;20.20;90.70;;;;;;5053697;28;20015;-61
2022/09/19 05:29:13;;;;;;;;;;;20.00;90.70;;;;;;5053081;28;19924;-62
2022/09/19 05:31:39;;;;;;;;;;;20.00;90.60;;;;;;5070107;28;20290;-62
2022/09/19 05:34:05;;;;;;;;;;;20.20;90.70;;;;;;5072256;28;20275;-62
2022/09/19 05:36:31;;;;;;;;;;;20.20;90.70;;;;;;5071021;28;19932;-62
2022/09/19 05:38:57;;;;;;;;;;;20.10;90.60;;;;;;5054935;28;19986;-62
2022/09/19 05:41:23;;;;;;;;;;;20.10;90.60;;;;;;5066437;28;20293;-63
2022/09/19 05:43:49;;;;;;;;;;;20.20;90.70;;;;;;5063387;28;19932;-62
2022/09/19 05:46:14;;;;;;;;;;;20.00;90.70;;;;;;5056305;28;19925;-61
2022/09/19 05:48:40;;;;;;;;;;;;;;;;;;5071284;28;20299;-67
2022/09/19 05:51:06;;;;;;;;;;;20.10;90.70;;;;;;5058956;28;20290;-62
2022/09/19 05:56:16;;;;;;;;;;;20.30;90.80;;;;;;5075526;28;19970;-63
2022/09/19 05:58:42;;;;;;;;;;;20.10;90.70;;;;;;5061541;28;19924;-63
2022/09/19 06:01:08;;;;;;;;;;;20.20;90.70;;;;;;5061748;28;19928;-62
2022/09/19 06:03:34;;;;;;;;;;;20.00;90.60;;;;;;5071369;28;19925;-62
2022/09/19 06:06:00;;;;;;;;;;;20.50;90.80;;;;;;5076420;28;20037;-63
2022/09/19 06:08:25;;;;;;;;;;;20.40;90.80;;;;;;5061410;28;19921;-69
2022/09/19 06:10:51;;;;;;;;;;;20.20;90.70;;;;;;5073214;28;19994;-62
2022/09/19 06:13:18;;;;;;;;;;;20.30;90.70;;;;;;5058548;28;19928;-65
2022/09/19 06:15:43;;;;;;;;;;;20.20;90.70;;;;;;5068391;28;19920;-62
2022/09/19 06:18:09;;;;;;;;;;;20.30;90.70;;;;;;5071108;28;19970;-62
2022/09/19 06:20:36;;;;;;;;;;;20.30;90.70;;;;;;5075584;28;20263;-62
2022/09/19 06:23:02;;;;;;;;;;;20.50;90.70;;;;;;5071544;28;19924;-62
2022/09/19 06:25:31;;;;;;;;;;;20.70;90.70;;;;;;5075991;28;19953;-62
2022/09/19 06:27:57;;;;;;;;;;;20.30;90.50;;;;;;5075612;28;19963;-61
2022/09/19 06:30:23;;;;;;;;;;;20.60;90.50;;;;;;5065586;28;19925;-62
2022/09/19 06:32:50;;;;;;;;;;;20.70;90.50;;;;;;5057831;28;19987;-62
2022/09/19 06:35:16;;;;;;;;;;;20.40;90.30;;;;;;5058103;28;20298;-62
2022/09/19 06:37:41;;;;;;;;;;;20.80;90.40;;;;;;5075565;28;19925;-62
2022/09/19 06:40:08;;;;;;;;;;;20.70;90.30;;;;;;5073079;28;19928;-62
2022/09/19 06:42:33;;;;;;;;;;;20.70;90.20;;;;;;5058109;28;20298;-62
2022/09/19 06:44:59;;;;;;;;;;;21.00;90.30;;;;;;5072390;28;19931;-62
2022/09/19 06:47:26;;;;;;;;;;;20.70;90.20;;;;;;5073991;28;19931;-62
2022/09/19 06:49:52;;;;;;;;;;;20.60;90.10;;;;;;5075140;28;19971;-61
2022/09/19 06:52:18;;;;;;;;;;;20.80;90.20;;;;;;5055300;28;20428;-62
2022/09/19 06:54:44;;;;;;;;;;;20.90;90.20;;;;;;5066299;28;20019;-62
2022/09/19 06:57:11;;;;;;;;;;;20.90;90.20;;;;;;5063638;28;19925;-64
2022/09/19 06:59:38;;;;;;;;;;;20.50;90.20;;;;;;5075050;28;19964;-62
2022/09/19 07:02:04;;;;;;;;;;;20.70;90.20;;;;;;5068286;28;19954;-62
2022/09/19 07:04:30;;;;;;;;;;;;;;;;;;5071107;28;19932;-68
2022/09/19 07:06:56;;;;;;;;;;;20.70;90.20;;;;;;5088932;28;19986;-64
2022/09/19 07:09:23;;;;;;;;;;;20.80;90.20;;;;;;5073684;28;19921;-62
2022/09/19 07:11:51;;;;;;;;;;;20.70;90.00;;;;;;5071779;28;19976;-62
2022/09/19 07:14:16;;;;;;;;;;;21.00;90.10;;;;;;5066770;28;19925;-62
2022/09/19 07:16:42;;;;;;;;;;;20.80;90.00;;;;;;5066460;28;20389;-63
2022/09/19 07:19:08;;;;;;;;;;;21.10;90.10;;;;;;5064583;28;20056;-62
2022/09/19 07:21:33;;;;;;;;;;;21.10;90.10;;;;;;5072501;28;19921;-62
2022/09/19 07:24:01;;;;;;;;;;;20.90;90.10;;;;;;5054607;28;20012;-62
2022/09/19 07:26:27;;;;;;;;;;;20.80;90.10;;;;;;5054656;28;20075;-64
2022/09/19 07:28:53;;;;;;;;;;;21.00;90.10;;;;;;5068614;28;19947;-62
2022/09/19 07:31:19;;;;;;;;;;;;;;;;;;5073338;28;20386;-69
2022/09/19 07:33:45;;;;;;;;;;;20.90;90.10;;;;;;5073977;28;19924;-62
2022/09/19 07:36:11;;;;;;;;;;;21.00;90.20;;;;;;5074675;28;20267;-62
2022/09/19 07:38:37;;;;;;;;;;;21.00;90.10;;;;;;5067803;28;19937;-62
2022/09/19 07:41:02;;;;;;;;;;;21.00;90.10;;;;;;5062948;28;19932;-62
2022/09/19 07:43:28;;;;;;;;;;;20.80;90.10;;;;;;5053388;28;19927;-62
2022/09/19 07:45:54;;;;;;;;;;;21.00;90.20;;;;;;5065934;28;19964;-62
2022/09/19 07:48:20;;;;;;;;;;;;;;;;;;5071396;28;20263;-65
2022/09/19 07:50:47;;;;;;;;;;;21.20;90.00;;;;;;5070835;28;20289;-62
2022/09/19 07:53:13;;;;;;;;;;;21.50;90.00;;;;;;5073190;28;19921;-62
2022/09/19 07:55:41;;;;;;;;;;;21.40;89.80;;;;;;5074862;28;19932;-62
2022/09/19 07:58:07;;;;;;;;;;;21.50;89.70;;;;;;5071914;28;20270;-62
2022/09/19 08:00:33;;;;;;;;;;;21.40;89.60;;;;;;5069738;28;19927;-62
2022/09/19 08:03:00;;;;;;;;;;;21.30;89.30;;;;;;5071947;28;19932;-63
2022/09/19 08:05:26;;;;;;;;;;;;;;;;;;5070688;28;20366;-67
2022/09/19 08:07:51;;;;;;;;;;;21.60;89.20;;;;;;5069514;28;19931;-64
2022/09/19 08:10:17;;;;;;;;;;;21.70;88.70;;;;;;5066619;28;20319;-75
2022/09/19 08:12:46;;;;;;;;;;;21.60;89.10;;;;;;5057816;28;19940;-63
2022/09/19 08:15:15;;;;;;;;;;;21.50;89.00;;;;;;5062836;28;19925;-62
2022/09/19 08:18:00;;;;;;;;;;;21.70;89.20;;;;;;5066793;28;20007;-63
2022/09/19 08:20:26;;;;;;;;;;;21.40;88.90;;;;;;5072415;28;19924;-63
2022/09/19 08:23:01;;;;;;;;;;;21.70;89.10;;;;;;5072813;28;20343;-65
2022/09/19 08:25:28;;;;;;;;;;;21.60;89.20;;;;;;5065629;28;19931;-69
2022/09/19 08:27:55;;;;;;;;;;;21.40;89.20;;;;;;5053660;28;19932;-63
2022/09/19 08:30:21;;;;;;;;;;;21.50;89.30;;;;;;5057623;28;19925;-63
2022/09/19 08:32:47;;;;;;;;;;;21.70;89.30;;;;;;5071277;28;19998;-64
2022/09/19 08:35:15;;;;;;;;;;;;;;;;;;5057378;28;19925;-72
2022/09/19 08:37:41;;;;;;;;;;;21.80;88.90;;;;;;5067294;28;19954;-63
2022/09/19 08:40:17;;;;;;;;;;;21.80;88.70;;;;;;5071297;28;19934;-68
2022/09/19 08:42:42;;;;;;;;;;;21.70;88.60;;;;;;5071580;28;19978;-62
2022/09/19 08:45:27;;;;;;;;;;;21.70;88.60;;;;;;5073836;28;20037;-63
2022/09/19 08:47:53;;;;;;;;;;;21.90;88.70;;;;;;5070706;28;19928;-63
2022/09/19 08:50:23;;;;;;;;;;;21.70;88.50;;;;;;5071249;28;19932;-62
2022/09/19 08:52:49;;;;;;;;;;;22.10;88.50;;;;;;5070648;28;20384;-62
2022/09/19 08:55:20;;;;;;;;;;;21.90;88.30;;;;;;5072820;28;19925;-62
2022/09/19 08:57:49;;;;;;;;;;;22.00;88.20;;;;;;5072440;28;19931;-62
2022/09/19 09:00:18;;;;;;;;;;;22.30;88.20;;;;;;5070691;28;20401;-62
2022/09/19 09:03:01;;;;;;;;;;;21.00;87.30;;;;;;5056688;28;19928;-64
2022/09/19 09:05:46;;;;;;;;;;;22.30;87.90;;;;;;5073493;28;19928;-70
2022/09/19 09:08:33;;;;;;;;;;;22.30;87.80;;;;;;5073327;28;19932;-66
2022/09/19 09:11:01;;;;;;;;;;;22.50;87.70;;;;;;5055107;28;19924;-62
2022/09/19 09:13:40;;;;;;;;;;;22.20;87.30;;;;;;5073114;28;19982;-62
2022/09/19 09:16:05;;;;;;;;;;;22.30;87.30;;;;;;5074565;28;19935;-62
2022/09/19 09:18:35;;;;;;;;;;;22.40;87.50;;;;;;5076275;28;19924;-63
2022/09/19 09:21:09;;;;;;;;;;;22.40;87.60;;;;;;5077115;28;19924;-63
2022/09/19 09:23:37;;;;;;;;;;;22.40;87.00;;;;;;5073475;28;20370;-65
2022/09/19 09:26:06;;;;;;;;;;;22.50;87.60;;;;;;5077119;28;19931;-64
2022/09/19 09:28:50;;;;;;;;;;;22.60;87.50;;;;;;5076872;28;19924;-63
2022/09/19 09:31:24;;;;;;;;;;;22.60;86.90;;;;;;5076367;28;20286;-63
2022/09/19 09:34:14;;;;;;;;;;;22.80;87.00;;;;;;5074748;28;19920;-67
2022/09/19 09:36:42;;;;;;;;;;;22.60;86.90;;;;;;4993845;28;19933;-63
2022/09/19 09:39:12;;;;;;;;;;;22.80;86.90;;;;;;4994589;28;20024;-64
2022/09/19 09:41:49;;;;;;;;;;;22.50;87.00;;;;;;4995997;28;19969;-63
2022/09/19 09:44:30;;;;;;;;;;;22.80;86.90;;;;;;4990533;28;19973;-74
2022/09/19 09:47:02;;;;;;;;;;;22.80;85.90;;;;;;4975769;28;20046;-76
2022/09/19 09:49:29;;;;;;;;;;;22.80;85.70;;;;;;4975683;28;19926;-75
2022/09/19 09:52:06;;;;;;;;;;;22.80;86.90;;;;;;4990262;28;20398;-76
2022/09/19 09:57:53;;;;;;;;;;;22.70;85.60;;;;;;4994944;28;19925;-76
2022/09/19 10:05:49;;;;;;;;;;;22.70;86.20;;;;;;4993674;28;19930;-75
2022/09/19 10:08:18;;;;;;;;;;;22.80;86.90;;;;;;4995561;28;20363;-75
2022/09/19 10:10:44;;;;;;;;;;;22.50;85.80;;;;;;4994699;28;19933;-76
2022/09/19 10:13:13;;;;;;;;;;;22.70;86.60;;;;;;5019633;28;20382;-76
2022/09/19 10:15:39;;;;;;;;;;;22.80;86.00;;;;;;5076208;28;19920;-76
2022/09/19 10:18:09;;;;;;;;;;;22.60;86.70;;;;;;5071118;28;19966;-61
2022/09/19 10:20:39;;;;;;;;;;;22.80;86.00;;;;;;5072839;28;19921;-77
2022/09/19 10:23:11;;;;;;;;;;;22.90;86.00;;;;;;5074776;28;19925;-76
2022/09/19 10:25:37;;;;;;;;;;;22.90;86.00;;;;;;5074448;28;19928;-76
2022/09/19 10:28:17;;;;;;;;;;;22.50;86.80;;;;;;5072445;28;20015;-77
2022/09/19 10:30:50;;;;;;;;;;;22.40;85.90;;;;;;5076058;28;19924;-78
2022/09/19 10:33:24;;;;;;;;;;;22.50;87.40;;;;;;5075656;28;20386;-63
2022/09/19 10:35:54;;;;;;;;;;;22.50;87.00;;;;;;5074094;28;19924;-71
2022/09/19 10:38:21;;;;;;;;;;;22.70;87.10;;;;;;5073673;28;19932;-66
2022/09/19 10:40:54;;;;;;;;;;;22.70;87.50;;;;;;5075766;28;19928;-65
2022/09/19 10:43:23;;;;;;;;;;;22.40;87.00;;;;;;5075604;28;19924;-67
2022/09/19 10:45:49;;;;;;;;;;;22.40;87.70;;;;;;5075357;28;19928;-62
2022/09/19 10:48:29;;;;;;;;;;;22.40;87.70;;;;;;5072373;28;19924;-67
2022/09/19 10:50:55;;;;;;;;;;;22.30;86.40;;;;;;5075190;28;20378;-68
2022/09/19 10:53:30;;;;;;;;;;;22.30;87.50;;;;;;5073852;28;19970;-65
2022/09/19 10:55:59;;;;;;;;;;;22.40;88.00;;;;;;5073721;28;20018;-62
2022/09/19 10:58:27;;;;;;;;;;;22.40;88.10;;;;;;5073981;28;20393;-64
2022/09/19 11:00:56;;;;;;;;;;;21.90;87.50;;;;;;5059914;28;19932;-62
2022/09/19 11:03:32;;;;;;;;;;;22.20;86.90;;;;;;5074610;28;19924;-62
2022/09/19 11:06:05;;;;;;;;;;;22.40;88.00;;;;;;5075085;28;19925;-61
2022/09/19 11:08:32;;;;;;;;;;;22.00;87.90;;;;;;5075491;28;19928;-64
2022/09/19 11:11:04;;;;;;;;;;;22.00;87.90;;;;;;5072503;28;20015;-62
2022/09/19 11:13:29;;;;;;;;;;;22.20;88.00;;;;;;5075069;28;20359;-62
2022/09/19 11:16:02;;;;;;;;;;;22.10;88.00;;;;;;5075124;28;19967;-63
2022/09/19 11:18:40;;;;;;;;;;;22.10;88.10;;;;;;5064785;28;20293;-62
2022/09/19 11:21:07;;;;;;;;;;;22.20;87.20;;;;;;5071572;28;19924;-61
2022/09/19 11:23:39;;;;;;;;;;;22.20;88.50;;;;;;5074868;28;19931;-61
2022/09/19 11:26:24;;;;;;;;;;;22.30;87.20;;;;;;5074817;28;19924;-62
2022/09/19 11:28:55;;;;;;;;;;;22.10;87.30;;;;;;5054880;28;19921;-62
2022/09/19 11:31:42;;;;;;;;;;;22.10;88.20;;;;;;5058738;28;19964;-75
2022/09/19 11:34:24;;;;;;;;;;;22.00;87.30;;;;;;5074435;28;19924;-62
2022/09/19 11:37:08;;;;;;;;;;;22.30;88.20;;;;;;5073458;28;20300;-62
2022/09/19 11:39:52;;;;;;;;;;;22.10;88.20;;;;;;5074657;28;19976;-61
2022/09/19 11:42:37;;;;;;;;;;;22.00;88.10;;;;;;5069230;28;19933;-62
2022/09/19 11:45:03;;;;;;;;;;;22.30;88.10;;;;;;5074234;28;19932;-62
2022/09/19 11:47:50;;;;;;;;;;;22.30;87.90;;;;;;5074549;28;20301;-62
2022/09/19 11:50:32;;;;;;;;;;;22.30;87.80;;;;;;5072859;28;20290;-62
2022/09/19 11:53:07;;;;;;;;;;;22.20;87.10;;;;;;5071540;28;19924;-62
2022/09/19 11:55:55;;;;;;;;;;;22.20;86.70;;;;;;5065139;28;19964;-62
2022/09/19 11:58:30;;;;;;;;;;;22.20;87.50;;;;;;5054025;28;19929;-62
2022/09/19 12:00:56;;;;;;;;;;;22.50;87.70;;;;;;5059834;28;19993;-61
2022/09/19 12:03:24;;;;;;;;;;;22.20;87.50;;;;;;5074181;28;20370;-62
2022/09/19 12:05:56;;;;;;;;;;;22.30;86.70;;;;;;5062113;28;21394;-62
2022/09/19 12:08:28;;;;;;;;;;;22.40;87.60;;;;;;5053921;28;20027;-64
2022/09/19 12:11:05;;;;;;;;;;;22.40;87.40;;;;;;5053692;28;19929;-62
2022/09/19 12:13:53;;;;;;;;;;;22.50;87.40;;;;;;5073908;28;19943;-63
2022/09/19 12:16:24;;;;;;;;;;;22.50;87.50;;;;;;5073527;28;20350;-61
2022/09/19 12:19:01;;;;;;;;;;;22.40;87.20;;;;;;5073472;28;20523;-63
2022/09/19 12:21:29;;;;;;;;;;;22.20;87.10;;;;;;5071204;28;19928;-63
2022/09/19 12:26:47;;;;;;;;;;;22.50;87.30;;;;;;5053916;28;19979;-62
2022/09/19 12:29:19;;;;;;;;;;;22.60;87.40;;;;;;5052813;28;19978;-62
2022/09/19 12:31:46;;;;;;;;;;;22.40;87.20;;;;;;5056317;28;19970;-62
2022/09/19 12:34:14;;;;;;;;;;;22.50;87.30;;;;;;5072994;28;19924;-62
2022/09/19 12:36:48;;;;;;;;;;;22.50;87.70;;;;;;5072219;28;19932;-62
2022/09/19 12:39:22;;;;;;;;;;;22.40;86.10;;;;;;5073941;28;19925;-63
2022/09/19 12:41:55;;;;;;;;;;;22.30;87.10;;;;;;5072430;28;20401;-62
2022/09/19 12:44:35;;;;;;;;;;;22.50;87.20;;;;;;5070666;28;19928;-61
2022/09/19 12:47:04;;;;;;;;;;;22.50;86.50;;;;;;5073946;28;19933;-62
2022/09/19 12:49:50;;;;;;;;;;;22.40;87.20;;;;;;5070106;28;20027;-62
2022/09/19 12:52:20;;;;;;;;;;;22.30;87.20;;;;;;5076666;28;20270;-63
2022/09/19 12:54:48;;;;;;;;;;;22.30;87.10;;;;;;5058219;28;19924;-63
2022/09/19 12:57:36;;;;;;;;;;;22.40;87.60;;;;;;5059564;28;19931;-62
2022/09/19 13:00:03;;;;;;;;;;;22.50;86.30;;;;;;5075589;28;19978;-63
2022/09/19 13:02:33;;;;;;;;;;;22.50;86.40;;;;;;5077294;28;19967;-62
2022/09/19 13:04:59;;;;;;;;;;;;;;;;;;5076408;28;19931;-66
2022/09/19 13:07:31;;;;;;;;;;;22.50;85.10;;;;;;5076517;28;19931;-62
2022/09/19 13:10:15;;;;;;;;;;;22.40;84.90;;;;;;5077089;28;19928;-62
2022/09/19 13:12:57;;;;;;;;;;;22.60;85.10;;;;;;5077163;28;19999;-61
2022/09/19 13:15:28;;;;;;;;;;;22.40;85.00;;;;;;5077348;28;19932;-64
2022/09/19 13:23:30;;;;;;;;;;;22.10;84.00;;;;;;5075337;28;20027;-62
2022/09/19 13:25:57;;;;;;;;;;;22.10;85.30;;;;;;5076978;28;20285;-62
2022/09/19 13:28:24;;;;;;;;;;;22.00;86.00;;;;;;5076014;28;19927;-70
2022/09/19 13:30:50;;;;;;;;;;;22.20;86.40;;;;;;5077117;28;19931;-71
2022/09/19 13:33:21;;;;;;;;;;;22.00;85.50;;;;;;5074988;28;19924;-68
2022/09/19 13:35:48;;;;;;;;;;;22.00;84.50;;;;;;5075836;28;19925;-62
2022/09/19 13:38:29;;;;;;;;;;;22.40;86.10;;;;;;5075817;28;19925;-67
2022/09/19 13:41:03;;;;;;;;;;;22.00;84.60;;;;;;5075700;28;19981;-62
2022/09/19 13:43:41;;;;;;;;;;;22.20;85.80;;;;;;5072447;28;19931;-65
2022/09/19 13:46:26;;;;;;;;;;;22.00;85.40;;;;;;5075696;28;20332;-74
2022/09/19 13:48:58;;;;;;;;;;;22.20;85.80;;;;;;5077294;28;19940;-74
2022/09/19 13:51:39;;;;;;;;;;;22.30;85.90;;;;;;5075430;28;19925;-63
2022/09/19 13:54:20;;;;;;;;;;;22.20;85.80;;;;;;5074498;28;19949;-64
2022/09/19 13:57:04;;;;;;;;;;;22.20;86.10;;;;;;5075653;28;20450;-61
2022/09/19 13:59:32;;;;;;;;;;;22.10;86.20;;;;;;5074754;28;19925;-64
2022/09/19 14:01:59;;;;;;;;;;;22.10;86.60;;;;;;5076234;28;20298;-65
2022/09/19 14:04:54;;;;;;;;;;;22.00;86.30;;;;;;5073151;28;19924;-65
2022/09/19 14:07:23;;;;;;;;;;;21.80;86.40;;;;;;5076455;28;19966;-62
2022/09/19 14:09:53;;;;;;;;;;;21.90;86.10;;;;;;5075299;28;20399;-63
2022/09/19 14:12:43;;;;;;;;;;;22.00;85.30;;;;;;5075179;28;19925;-62
2022/09/19 14:15:29;;;;;;;;;;;21.90;85.30;;;;;;5074082;28;19924;-73
2022/09/19 14:18:12;;;;;;;;;;;22.10;85.60;;;;;;5064309;28;19931;-74
2022/09/19 14:20:46;;;;;;;;;;;22.20;86.70;;;;;;5070161;28;20015;-71
2022/09/19 14:23:12;;;;;;;;;;;21.90;86.60;;;;;;5075095;28;19928;-72
2022/09/19 14:25:38;;;;;;;;;;;22.00;87.20;;;;;;5074966;28;19968;-72
2022/09/19 14:28:19;;;;;;;;;;;22.10;86.90;;;;;;5075759;28;19931;-72
2022/09/19 14:30:52;;;;;;;;;;;21.80;86.90;;;;;;5058113;28;19925;-72
2022/09/19 14:33:21;;;;;;;;;;;22.10;86.20;;;;;;5075814;28;19928;-72
2022/09/19 14:35:48;;;;;;;;;;;22.10;86.10;;;;;;5075281;28;20025;-72
2022/09/19 14:38:19;;;;;;;;;;;22.20;87.40;;;;;;5074009;28;19924;-73
2022/09/19 14:40:44;;;;;;;;;;;21.90;86.90;;;;;;5073035;28;20023;-73
2022/09/19 14:43:31;;;;;;;;;;;21.90;87.20;;;;;;5056253;28;20336;-75
2022/09/19 14:46:06;;;;;;;;;;;22.10;87.10;;;;;;5038016;28;19932;-72
2022/09/19 14:48:35;;;;;;;;;;;21.90;87.10;;;;;;5060134;28;19924;-76
2022/09/19 14:51:04;;;;;;;;;;;21.70;87.10;;;;;;5071632;28;19931;-74
2022/09/19 14:53:31;;;;;;;;;;;21.70;86.20;;;;;;5074523;28;20382;-75
2022/09/19 14:56:01;;;;;;;;;;;21.90;87.20;;;;;;5083920;28;19928;-73